createdAt,value
2019-01-10T00:00:39.296Z,49.20
2019-01-10T00:03:33.676Z,49.10
2019-01-10T00:06:28.477Z,49.10
2019-01-10T00:09:22.967Z,49.10
2019-01-10T00:12:17.261Z,49.10
2019-01-10T00:15:13.409Z,49.10
2019-01-10T00:18:07.257Z,49.20
2019-01-10T00:21:07.046Z,49.00
2019-01-10T00:24:03.713Z,48.90
2019-01-10T00:26:56.593Z,48.90
2019-01-10T00:29:51.676Z,49.10
2019-01-10T00:32:48.520Z,49.00
2019-01-10T00:35:42.806Z,49.00
2019-01-10T00:38:45.201Z,49.10
2019-01-10T00:41:39.910Z,49.10
2019-01-10T00:44:35.492Z,48.90
2019-01-10T00:47:29.678Z,48.80
2019-01-10T00:50:25.066Z,48.80
2019-01-10T00:53:19.065Z,48.80
2019-01-10T00:56:12.923Z,48.80
2019-01-10T00:59:06.926Z,48.90
2019-01-10T01:02:01.311Z,49.10
2019-01-10T01:04:55.496Z,48.80
2019-01-10T01:07:49.783Z,48.90
2019-01-10T01:10:44.069Z,48.90
2019-01-10T01:13:42.895Z,49.00
2019-01-10T01:16:36.325Z,48.90
2019-01-10T01:19:39.643Z,48.90
2019-01-10T01:22:33.709Z,48.80
2019-01-10T01:25:27.784Z,48.90
2019-01-10T01:28:24.944Z,48.80
2019-01-10T01:31:19.641Z,48.80
2019-01-10T01:34:17.300Z,48.90
2019-01-10T01:37:14.770Z,48.90
2019-01-10T01:40:09.469Z,48.90
2019-01-10T01:43:07.402Z,48.90
2019-01-10T01:45:58.731Z,48.90
2019-01-10T01:48:56.769Z,48.90
2019-01-10T01:51:50.912Z,48.90
2019-01-10T01:54:45.011Z,49.20
2019-01-10T01:57:39.122Z,48.90
2019-01-10T02:00:35.934Z,48.90
2019-01-10T02:03:29.895Z,48.90
2019-01-10T02:06:24.490Z,48.80
2019-01-10T02:09:18.822Z,48.80
2019-01-10T02:12:13.069Z,48.60
2019-01-10T02:15:10.302Z,48.30
2019-01-10T02:18:02.309Z,46.30
2019-01-10T02:20:57.025Z,46.10
2019-01-10T02:23:51.804Z,46.00
2019-01-10T02:26:45.943Z,45.70
2019-01-10T02:29:40.658Z,45.70
2019-01-10T02:32:34.725Z,45.90
2019-01-10T02:35:32.266Z,46.20
2019-01-10T02:38:26.704Z,46.30
2019-01-10T02:41:21.263Z,46.40
2019-01-10T02:44:15.385Z,46.20
2019-01-10T02:47:10.214Z,46.50
2019-01-10T02:50:06.906Z,46.80
2019-01-10T02:53:01.678Z,46.90
2019-01-10T02:55:56.138Z,47.00
2019-01-10T02:58:53.436Z,46.60
2019-01-10T03:01:56.682Z,46.60
2019-01-10T03:04:50.038Z,46.50
2019-01-10T03:07:44.509Z,46.70
2019-01-10T03:10:38.867Z,46.80
2019-01-10T03:13:36.870Z,46.60
2019-01-10T03:16:29.167Z,46.40
2019-01-10T03:19:23.876Z,46.20
2019-01-10T03:22:24.305Z,45.90
2019-01-10T03:25:17.340Z,46.20
2019-01-10T03:28:12.368Z,46.00
2019-01-10T03:31:11.462Z,46.10
2019-01-10T03:34:06.035Z,46.00
2019-01-10T03:37:01.341Z,46.20
2019-01-10T03:39:56.380Z,46.20
2019-01-10T03:42:53.423Z,46.30
2019-01-10T03:45:48.324Z,46.30
2019-01-10T03:48:45.674Z,46.30
2019-01-10T03:51:40.063Z,46.30
2019-01-10T03:54:34.966Z,45.90
2019-01-10T03:57:29.947Z,46.30
2019-01-10T04:00:28.440Z,46.30
2019-01-10T04:03:23.263Z,46.20
2019-01-10T04:06:18.541Z,46.10
2019-01-10T04:09:17.639Z,46.30
2019-01-10T04:12:12.345Z,46.20
2019-01-10T04:15:07.135Z,46.20
2019-01-10T04:18:01.464Z,46.20
2019-01-10T04:20:55.815Z,46.30
2019-01-10T04:23:50.526Z,46.30
2019-01-10T04:26:46.221Z,46.30
2019-01-10T04:29:41.763Z,46.10
2019-01-10T04:32:36.024Z,46.20
2019-01-10T04:35:30.110Z,46.90
2019-01-10T04:38:24.899Z,46.30
2019-01-10T04:41:23.015Z,46.40
2019-01-10T04:44:16.877Z,46.50
2019-01-10T04:47:11.441Z,46.30
2019-01-10T04:50:15.630Z,46.40
2019-01-10T04:53:15.795Z,45.00
2019-01-10T04:56:14.902Z,43.70
2019-01-10T04:59:12.038Z,44.70
2019-01-10T05:02:18.324Z,44.90
2019-01-10T05:05:07.273Z,45.20
2019-01-10T05:08:51.145Z,45.50
2019-01-10T05:11:41.846Z,45.10
2019-01-10T05:14:35.592Z,45.10
2019-01-10T05:20:39.517Z,45.30
2019-01-10T05:23:35.503Z,45.40
2019-01-10T05:26:31.386Z,45.20
2019-01-10T05:29:31.221Z,45.30
2019-01-10T05:32:26.181Z,45.40
2019-01-10T05:35:27.560Z,45.50
2019-01-10T05:38:33.891Z,45.30
2019-01-10T05:48:47.104Z,42.30
2019-01-10T05:52:11.172Z,41.50
2019-01-10T05:55:13.165Z,41.30
2019-01-10T05:58:41.255Z,41.30
2019-01-10T06:01:38.298Z,41.20
2019-01-10T06:04:35.250Z,40.90
2019-01-10T06:14:35.724Z,41.40
2019-01-10T06:17:29.669Z,41.40
2019-01-10T06:23:28.445Z,40.80
2019-01-10T06:26:56.832Z,41.10
2019-01-10T06:29:46.360Z,40.70
2019-01-10T06:32:50.889Z,40.70
2019-01-10T06:35:50.108Z,41.00
2019-01-10T06:42:19.104Z,41.00
2019-01-10T06:45:38.024Z,40.80
2019-01-10T06:49:05.415Z,40.90
2019-01-10T06:52:38.618Z,41.10
2019-01-10T06:55:32.808Z,41.30
2019-01-10T06:58:50.171Z,40.90
2019-01-10T07:01:47.349Z,40.80
2019-01-10T07:05:02.410Z,40.90
2019-01-10T07:07:57.082Z,41.00
2019-01-10T07:10:55.570Z,41.40
2019-01-10T07:14:00.385Z,41.40
2019-01-10T07:17:01.275Z,41.60
2019-01-10T07:20:06.822Z,41.40
2019-01-10T07:30:47.447Z,41.00
2019-01-10T07:37:44.989Z,40.80
2019-01-10T07:41:11.100Z,40.50
2019-01-10T07:44:20.769Z,40.40
2019-01-10T07:54:34.262Z,40.10
2019-01-10T08:01:18.696Z,40.60
2019-01-10T08:12:25.561Z,39.60
2019-01-10T08:14:47.065Z,39.40
2019-01-10T08:18:03.898Z,39.30
2019-01-10T08:25:06.794Z,39.00
2019-01-10T08:28:19.917Z,39.00
2019-01-10T08:31:22.758Z,39.00
2019-01-10T08:34:40.239Z,38.50
2019-01-10T08:38:08.945Z,38.90
2019-01-10T08:44:52.022Z,38.50
2019-01-10T08:47:46.444Z,38.50
2019-01-10T08:51:06.727Z,38.00
2019-01-10T08:54:13.466Z,37.90
2019-01-10T08:57:19.857Z,37.50
2019-01-10T09:00:43.790Z,37.30
2019-01-10T09:07:03.647Z,37.60
2019-01-10T09:10:06.593Z,38.60
2019-01-10T09:13:10.052Z,37.90
2019-01-10T09:16:29.621Z,38.20
2019-01-10T09:19:42.426Z,38.00
2019-01-10T09:26:37.650Z,38.00
2019-01-10T09:44:42.026Z,38.40
2019-01-10T09:47:40.106Z,38.50
2019-01-10T09:50:48.912Z,38.90
2019-01-10T09:53:43.339Z,38.40
2019-01-10T09:56:37.686Z,38.10
2019-01-10T09:59:35.933Z,37.80
2019-01-10T10:02:30.559Z,37.80
2019-01-10T10:05:26.202Z,37.60
2019-01-10T10:08:20.606Z,37.90
2019-01-10T10:11:14.279Z,38.10
2019-01-10T10:14:08.680Z,38.40
2019-01-10T10:17:05.519Z,38.70
2019-01-10T10:19:59.751Z,38.50
2019-01-10T10:22:53.307Z,38.10
2019-01-10T10:25:48.908Z,37.80
2019-01-10T10:28:44.620Z,38.00
2019-01-10T10:31:39.000Z,38.10
2019-01-10T10:34:35.467Z,38.10
2019-01-10T10:37:29.679Z,38.30
2019-01-10T10:41:03.888Z,38.10
2019-01-10T10:43:58.376Z,38.80
2019-01-10T10:46:56.362Z,38.40
2019-01-10T10:49:50.848Z,37.80
2019-01-10T10:52:44.736Z,37.80
2019-01-10T10:55:52.731Z,37.60
2019-01-10T10:58:48.178Z,37.80
2019-01-10T11:01:44.346Z,38.00
2019-01-10T11:04:58.441Z,37.80
2019-01-10T11:07:55.408Z,37.70
2019-01-10T11:11:11.851Z,37.80
2019-01-10T11:36:21.246Z,38.70
2019-01-10T11:43:42.224Z,38.40
2019-01-10T11:56:38.529Z,38.20
